createdAt,value
2023-05-18T00:02:21.440Z,5.80
2023-05-18T00:04:48.525Z,5.80
2023-05-18T00:07:15.533Z,5.80
2023-05-18T00:09:42.463Z,5.80
2023-05-18T00:12:10.001Z,5.80
2023-05-18T00:14:37.315Z,5.80
2023-05-18T00:17:04.266Z,5.80
2023-05-18T00:19:31.548Z,5.80
2023-05-18T00:21:58.580Z,5.80
2023-05-18T00:24:25.567Z,5.70
2023-05-18T00:26:52.651Z,5.70
2023-05-18T00:29:19.738Z,5.70
2023-05-18T00:31:46.706Z,5.60
2023-05-18T00:34:15.908Z,5.60
2023-05-18T00:36:42.997Z,5.60
2023-05-18T00:39:10.202Z,5.70
2023-05-18T00:41:37.195Z,5.60
2023-05-18T00:44:05.006Z,5.60
2023-05-18T00:46:32.732Z,5.70
2023-05-18T00:49:01.982Z,5.60
2023-05-18T00:51:29.919Z,5.60
2023-05-18T00:53:57.573Z,5.70
2023-05-18T00:56:25.027Z,5.70
2023-05-18T00:58:57.192Z,5.70
2023-05-18T01:01:34.618Z,5.70
2023-05-18T01:04:04.015Z,5.70
2023-05-18T01:06:36.040Z,5.70
2023-05-18T01:09:06.916Z,5.70
2023-05-18T01:11:56.614Z,5.70
2023-05-18T01:14:50.004Z,5.80
2023-05-18T01:17:40.540Z,5.80
2023-05-18T01:20:33.526Z,5.80
2023-05-18T01:23:44.856Z,5.80
2023-05-18T01:26:29.846Z,5.90
2023-05-18T01:29:04.282Z,5.90
2023-05-18T01:31:31.497Z,5.80
2023-05-18T01:33:58.821Z,5.80
2023-05-18T01:36:25.951Z,5.80
2023-05-18T01:38:53.735Z,5.80
2023-05-18T01:41:25.681Z,5.80
2023-05-18T01:44:19.362Z,5.80
2023-05-18T01:46:55.150Z,5.80
2023-05-18T01:49:43.550Z,5.80
2023-05-18T01:52:16.854Z,5.80
2023-05-18T01:54:46.145Z,5.80
2023-05-18T01:57:13.086Z,5.80
2023-05-18T01:59:41.445Z,5.80
2023-05-18T02:02:08.854Z,5.80
2023-05-18T02:04:35.869Z,5.70
2023-05-18T02:07:03.275Z,5.60
2023-05-18T02:09:30.155Z,5.70
2023-05-18T02:11:56.998Z,5.70
2023-05-18T02:14:23.864Z,5.70
2023-05-18T02:16:53.041Z,5.70
2023-05-18T02:19:21.323Z,5.70
2023-05-18T02:21:48.389Z,5.70
2023-05-18T02:24:15.311Z,5.70
2023-05-18T02:26:42.297Z,5.70
2023-05-18T02:29:11.990Z,5.70
2023-05-18T02:31:39.219Z,5.70
2023-05-18T02:34:06.874Z,5.70
2023-05-18T02:36:37.266Z,5.70
2023-05-18T02:39:04.960Z,5.70
2023-05-18T02:41:32.425Z,5.70
2023-05-18T02:43:59.581Z,5.70
2023-05-18T02:46:26.573Z,5.70
2023-05-18T02:48:53.702Z,5.70
2023-05-18T02:51:21.698Z,5.70
2023-05-18T02:53:48.960Z,5.70
2023-05-18T02:56:17.721Z,5.70
2023-05-18T02:58:45.112Z,5.60
2023-05-18T03:01:12.369Z,5.60
2023-05-18T03:03:42.095Z,5.60
2023-05-18T03:06:09.845Z,5.60
2023-05-18T03:08:37.298Z,5.60
2023-05-18T03:11:04.608Z,5.50
2023-05-18T03:13:31.460Z,5.50
2023-05-18T03:15:58.606Z,5.50
2023-05-18T03:18:25.666Z,5.50
2023-05-18T03:20:52.723Z,5.50
2023-05-18T03:23:20.371Z,5.50
2023-05-18T03:25:47.245Z,5.50
2023-05-18T03:28:14.091Z,5.50
2023-05-18T03:30:40.941Z,5.50
2023-05-18T03:33:07.874Z,5.50
2023-05-18T03:35:34.742Z,5.50
2023-05-18T03:38:01.695Z,5.50
2023-05-18T03:40:29.252Z,5.50
2023-05-18T03:42:56.219Z,5.50
2023-05-18T03:45:23.305Z,5.50
2023-05-18T03:47:50.523Z,5.50
2023-05-18T03:50:17.419Z,5.50
2023-05-18T03:52:44.789Z,5.50
2023-05-18T03:55:12.142Z,5.50
2023-05-18T03:57:39.432Z,5.50
2023-05-18T04:00:13.166Z,5.50
2023-05-18T04:02:40.587Z,5.60
2023-05-18T04:05:08.350Z,5.60
2023-05-18T04:07:44.059Z,5.60
2023-05-18T04:10:13.097Z,5.70
2023-05-18T04:12:40.773Z,5.70
2023-05-18T04:15:08.453Z,5.70
2023-05-18T04:17:35.731Z,5.80
2023-05-18T04:20:11.535Z,5.90
2023-05-18T04:22:43.278Z,5.90
2023-05-18T04:25:13.918Z,6.00
2023-05-18T04:27:43.426Z,6.10
2023-05-18T04:30:11.838Z,6.10
2023-05-18T04:32:42.696Z,6.20
2023-05-18T04:35:11.611Z,6.30
2023-05-18T04:37:42.848Z,6.40
2023-05-18T04:40:14.170Z,6.50
2023-05-18T04:42:48.485Z,6.60
2023-05-18T04:45:20.422Z,6.80
2023-05-18T04:47:53.240Z,6.80
2023-05-18T04:50:23.639Z,6.90
2023-05-18T04:52:51.850Z,7.00
2023-05-18T04:55:28.696Z,7.10
2023-05-18T04:57:57.251Z,7.20
2023-05-18T05:00:26.229Z,7.30
2023-05-18T05:02:54.327Z,7.40
2023-05-18T05:05:22.760Z,7.50
2023-05-18T05:07:51.669Z,7.60
2023-05-18T05:10:20.677Z,7.70
2023-05-18T05:12:49.701Z,7.90
2023-05-18T05:15:17.719Z,8.00
2023-05-18T05:17:46.221Z,8.10
2023-05-18T05:20:13.121Z,8.30
2023-05-18T05:22:40.165Z,8.40
2023-05-18T05:25:08.334Z,8.50
2023-05-18T05:27:35.305Z,8.60
2023-05-18T05:30:02.618Z,8.50
2023-05-18T05:32:29.590Z,8.40
2023-05-18T05:34:56.500Z,8.30
2023-05-18T05:37:23.379Z,8.30
2023-05-18T05:39:50.217Z,8.20
2023-05-18T05:42:17.159Z,8.10
2023-05-18T05:44:44.872Z,8.30
2023-05-18T05:47:11.902Z,8.50
2023-05-18T05:49:38.814Z,8.80
2023-05-18T05:52:06.134Z,9.10
2023-05-18T05:54:33.012Z,9.30
2023-05-18T05:57:00.195Z,9.30
2023-05-18T05:59:27.200Z,9.50
2023-05-18T06:01:54.100Z,9.60
2023-05-18T06:04:21.114Z,10.10
2023-05-18T06:06:49.375Z,10.50
2023-05-18T06:09:16.401Z,10.90
2023-05-18T06:11:43.364Z,11.20
2023-05-18T06:14:10.198Z,11.50
2023-05-18T06:16:37.103Z,11.60
2023-05-18T06:19:04.125Z,12.00
2023-05-18T06:21:31.672Z,12.30
2023-05-18T06:23:58.527Z,12.30
2023-05-18T06:26:25.360Z,12.40
2023-05-18T06:28:52.209Z,12.20
2023-05-18T06:31:19.182Z,11.90
2023-05-18T06:33:46.050Z,11.60
2023-05-18T06:36:12.929Z,11.90
2023-05-18T06:38:39.789Z,12.10
2023-05-18T06:41:06.668Z,12.50
2023-05-18T06:43:33.519Z,12.70
2023-05-18T06:46:00.408Z,12.20
2023-05-18T06:48:28.612Z,11.90
2023-05-18T06:50:56.119Z,11.60
2023-05-18T06:53:23.412Z,11.90
2023-05-18T06:55:50.419Z,12.00
2023-05-18T06:58:17.323Z,12.30
2023-05-18T07:00:44.197Z,12.50
2023-05-18T07:03:11.361Z,12.70
2023-05-18T07:05:39.571Z,12.90
2023-05-18T07:08:07.226Z,12.80
2023-05-18T07:10:35.648Z,12.80
2023-05-18T07:13:02.609Z,13.00
2023-05-18T07:15:29.889Z,13.20
2023-05-18T07:17:57.154Z,13.00
2023-05-18T07:20:26.171Z,13.20
2023-05-18T07:22:55.265Z,13.50
2023-05-18T07:25:23.198Z,13.90
2023-05-18T07:27:54.459Z,13.70
2023-05-18T07:30:22.599Z,13.50
2023-05-18T07:32:51.029Z,13.70
2023-05-18T07:35:20.187Z,14.00
2023-05-18T07:37:47.064Z,14.30
2023-05-18T07:40:13.971Z,14.60
2023-05-18T07:42:41.799Z,14.90
2023-05-18T07:45:09.583Z,15.20
2023-05-18T07:47:36.560Z,15.30
2023-05-18T07:50:03.893Z,15.50
2023-05-18T07:52:30.986Z,15.40
2023-05-18T07:54:57.903Z,15.70
2023-05-18T07:57:25.320Z,15.90
2023-05-18T07:59:52.348Z,16.20
2023-05-18T08:02:19.976Z,15.90
2023-05-18T08:04:48.083Z,15.90
2023-05-18T08:07:15.070Z,16.30
2023-05-18T08:09:41.942Z,16.70
2023-05-18T08:12:09.165Z,16.70
2023-05-18T08:14:36.329Z,16.90
2023-05-18T08:17:04.782Z,16.90
2023-05-18T08:19:32.025Z,16.90
2023-05-18T08:21:59.132Z,16.90
2023-05-18T08:24:26.026Z,17.00
2023-05-18T08:26:53.151Z,16.90
2023-05-18T08:29:20.147Z,17.00
2023-05-18T08:31:49.255Z,16.50
2023-05-18T08:34:16.695Z,16.40
2023-05-18T08:36:45.627Z,16.20
2023-05-18T08:39:13.155Z,15.90
2023-05-18T08:41:55.102Z,15.60
2023-05-18T08:44:26.453Z,15.50
2023-05-18T08:46:54.808Z,15.40
2023-05-18T08:49:22.144Z,15.40
2023-05-18T08:51:57.122Z,15.30
2023-05-18T08:54:24.500Z,15.70
2023-05-18T08:56:53.672Z,15.20
2023-05-18T08:59:25.604Z,15.30
2023-05-18T09:01:54.926Z,15.40
2023-05-18T09:04:22.399Z,15.20
2023-05-18T09:06:49.867Z,15.20
2023-05-18T09:09:18.129Z,15.10
2023-05-18T09:11:47.088Z,15.30
2023-05-18T09:14:14.365Z,15.50
2023-05-18T09:16:41.478Z,15.60
2023-05-18T09:19:08.409Z,15.70
2023-05-18T09:21:35.761Z,15.30
2023-05-18T09:24:02.730Z,15.20
2023-05-18T09:26:29.694Z,15.60
2023-05-18T09:28:56.586Z,15.90
2023-05-18T09:31:24.869Z,16.20
2023-05-18T09:33:52.676Z,16.60
2023-05-18T09:36:26.090Z,17.00
2023-05-18T09:38:53.421Z,16.80
2023-05-18T09:41:20.295Z,15.80
2023-05-18T09:43:51.422Z,15.50
2023-05-18T09:46:20.620Z,15.30
2023-05-18T09:48:53.066Z,15.20
2023-05-18T09:51:21.809Z,15.70
2023-05-18T09:53:56.922Z,16.10
2023-05-18T09:56:27.369Z,16.10
2023-05-18T09:58:55.161Z,16.00
2023-05-18T10:01:22.164Z,16.40
2023-05-18T10:03:49.936Z,16.60
2023-05-18T10:06:21.069Z,16.20
2023-05-18T10:08:48.082Z,16.00
2023-05-18T10:11:19.836Z,15.80
2023-05-18T10:13:47.126Z,16.10
2023-05-18T10:16:16.720Z,16.50
2023-05-18T10:18:44.261Z,16.20
2023-05-18T10:21:14.340Z,16.40
2023-05-18T10:23:41.666Z,16.40
2023-05-18T10:26:10.039Z,16.30
2023-05-18T10:28:47.231Z,16.10
2023-05-18T10:31:16.745Z,15.80
2023-05-18T10:33:44.758Z,15.80
2023-05-18T10:36:12.087Z,15.80
2023-05-18T10:38:43.501Z,15.50
2023-05-18T10:41:12.459Z,15.60
2023-05-18T10:43:41.648Z,15.80
2023-05-18T10:46:09.673Z,15.80
2023-05-18T10:48:40.457Z,15.80
2023-05-18T10:51:08.326Z,16.00
2023-05-18T10:53:36.848Z,16.50
2023-05-18T10:56:04.106Z,16.80
2023-05-18T10:58:32.099Z,16.40
2023-05-18T11:01:06.282Z,16.40
2023-05-18T11:03:33.886Z,16.30
2023-05-18T11:06:10.319Z,16.70
2023-05-18T11:08:51.761Z,17.10
2023-05-18T11:11:26.202Z,17.60
2023-05-18T11:13:53.175Z,18.00
2023-05-18T11:16:20.949Z,18.30
2023-05-18T11:18:51.529Z,18.30
2023-05-18T11:21:22.176Z,18.40
2023-05-18T11:24:24.817Z,18.30
2023-05-18T11:27:00.314Z,18.50
2023-05-18T11:29:36.059Z,18.90
2023-05-18T11:32:04.833Z,18.80
2023-05-18T11:34:45.461Z,18.60
2023-05-18T11:37:15.005Z,17.80
2023-05-18T11:39:55.426Z,17.30
2023-05-18T11:42:34.133Z,16.80
2023-05-18T11:45:08.887Z,16.50
2023-05-18T11:47:37.010Z,16.90
2023-05-18T11:50:08.557Z,16.90
2023-05-18T11:52:51.712Z,17.30
2023-05-18T11:55:21.036Z,18.00
2023-05-18T11:57:52.403Z,18.30
2023-05-18T12:00:21.016Z,17.70
2023-05-18T12:02:49.255Z,17.60
2023-05-18T12:05:17.161Z,17.30
2023-05-18T12:07:45.086Z,17.20
2023-05-18T12:10:17.468Z,17.00
2023-05-18T12:12:48.300Z,16.80
2023-05-18T12:15:17.181Z,16.80
2023-05-18T12:17:47.283Z,16.60
2023-05-18T12:20:27.266Z,16.30
2023-05-18T12:22:55.965Z,16.20
2023-05-18T12:25:25.887Z,16.40
2023-05-18T12:27:54.385Z,16.50
2023-05-18T12:30:34.457Z,16.50
2023-05-18T12:33:02.526Z,16.40
2023-05-18T12:35:31.496Z,16.50
2023-05-18T12:38:03.153Z,16.30
2023-05-18T12:40:44.475Z,16.10
2023-05-18T12:43:11.847Z,15.90
2023-05-18T12:45:38.886Z,15.90
2023-05-18T12:48:11.124Z,15.70
2023-05-18T12:50:53.068Z,15.70
2023-05-18T12:53:20.048Z,15.90
2023-05-18T12:55:59.768Z,16.10
2023-05-18T12:58:26.705Z,16.50
2023-05-18T13:00:53.629Z,16.60
2023-05-18T13:03:22.015Z,16.90
2023-05-18T13:06:07.025Z,16.60
2023-05-18T13:08:36.137Z,16.50
2023-05-18T13:11:14.444Z,16.50
2023-05-18T13:14:14.323Z,16.50
2023-05-18T13:16:45.637Z,16.40
2023-05-18T13:19:18.988Z,16.10
2023-05-18T13:21:47.087Z,15.90
2023-05-18T13:24:14.490Z,15.80
2023-05-18T13:26:41.472Z,16.00
2023-05-18T13:29:08.683Z,16.20
2023-05-18T13:31:36.020Z,16.60
2023-05-18T13:34:03.652Z,16.80
2023-05-18T13:36:33.632Z,17.20
2023-05-18T13:39:01.455Z,17.10
2023-05-18T13:41:28.358Z,16.90
2023-05-18T13:43:55.357Z,17.10
2023-05-18T13:46:22.316Z,17.10
2023-05-18T13:48:49.205Z,16.80
2023-05-18T13:51:16.266Z,17.20
2023-05-18T13:53:43.232Z,17.60
2023-05-18T13:56:10.082Z,18.00
2023-05-18T13:58:36.987Z,18.40
2023-05-18T14:01:07.985Z,18.20
2023-05-18T14:03:36.551Z,18.00
2023-05-18T14:06:03.844Z,17.70
2023-05-18T14:08:30.678Z,17.10
2023-05-18T14:10:57.540Z,17.10
2023-05-18T14:13:24.397Z,17.00
2023-05-18T14:15:51.483Z,16.70
2023-05-18T14:18:18.430Z,16.60
2023-05-18T14:20:47.466Z,16.70
2023-05-18T14:23:14.496Z,16.60
2023-05-18T14:25:43.534Z,16.50
2023-05-18T14:28:10.413Z,16.50
2023-05-18T14:30:37.439Z,16.40
2023-05-18T14:33:04.600Z,16.30
2023-05-18T14:35:31.617Z,16.20
2023-05-18T14:37:58.501Z,16.20
2023-05-18T14:40:25.457Z,16.00
2023-05-18T14:42:53.780Z,16.30
2023-05-18T14:45:21.156Z,16.90
2023-05-18T14:47:48.224Z,17.40
2023-05-18T14:50:15.306Z,17.60
2023-05-18T14:52:42.142Z,17.70
2023-05-18T14:55:09.574Z,17.30
2023-05-18T14:57:36.475Z,17.00
2023-05-18T15:00:04.430Z,16.70
2023-05-18T15:02:31.376Z,16.50
2023-05-18T15:04:58.333Z,16.10
2023-05-18T15:07:25.206Z,16.10
2023-05-18T15:09:52.145Z,15.90
2023-05-18T15:12:19.662Z,15.80
2023-05-18T15:14:46.611Z,15.80
2023-05-18T15:17:14.967Z,15.80
2023-05-18T15:19:41.924Z,15.70
2023-05-18T15:22:09.009Z,15.60
2023-05-18T15:24:35.943Z,15.50
2023-05-18T15:27:03.472Z,15.50
2023-05-18T15:29:30.492Z,15.50
2023-05-18T15:31:57.398Z,15.50
2023-05-18T15:34:24.302Z,15.40
2023-05-18T15:36:53.336Z,15.40
2023-05-18T15:39:20.753Z,15.40
2023-05-18T15:41:47.631Z,15.40
2023-05-18T15:44:14.549Z,15.30
2023-05-18T15:46:41.422Z,15.40
2023-05-18T15:49:08.332Z,15.50
2023-05-18T15:51:35.233Z,15.40
2023-05-18T15:54:02.079Z,15.50
2023-05-18T15:56:28.962Z,15.50
2023-05-18T15:58:55.894Z,15.40
2023-05-18T16:01:22.882Z,15.50
2023-05-18T16:03:49.846Z,15.40
2023-05-18T16:06:18.459Z,15.20
2023-05-18T16:08:46.090Z,15.20
2023-05-18T16:11:13.053Z,15.20
2023-05-18T16:13:39.916Z,15.10
2023-05-18T16:16:08.843Z,15.00
2023-05-18T16:18:36.577Z,15.10
2023-05-18T16:21:03.634Z,15.00
2023-05-18T16:23:30.510Z,15.00
2023-05-18T16:25:57.587Z,14.80
2023-05-18T16:28:24.456Z,14.80
2023-05-18T16:30:51.313Z,14.70
2023-05-18T16:33:18.210Z,14.60
2023-05-18T16:35:45.111Z,14.60
2023-05-18T16:38:13.236Z,14.50
2023-05-18T16:40:40.203Z,14.40
2023-05-18T16:43:07.064Z,14.40
2023-05-18T16:45:33.998Z,14.50
2023-05-18T16:48:03.593Z,14.50
2023-05-18T16:50:31.620Z,14.40
2023-05-18T16:52:58.715Z,14.40
2023-05-18T16:55:25.817Z,14.30
2023-05-18T16:57:53.050Z,14.30
2023-05-18T17:00:20.755Z,14.20
2023-05-18T17:02:47.839Z,14.20
2023-05-18T17:05:17.122Z,14.30
2023-05-18T17:07:44.063Z,14.30
2023-05-18T17:10:11.131Z,14.20
2023-05-18T17:12:38.449Z,14.20
2023-05-18T17:15:06.020Z,14.20
2023-05-18T17:17:32.958Z,14.20
2023-05-18T17:19:59.864Z,14.20
2023-05-18T17:22:26.740Z,14.20
2023-05-18T17:24:53.751Z,14.20
2023-05-18T17:27:21.481Z,14.20
2023-05-18T17:29:48.314Z,14.20
2023-05-18T17:32:15.531Z,14.20
2023-05-18T17:34:42.401Z,14.10
2023-05-18T17:37:09.352Z,14.10
2023-05-18T17:39:36.200Z,14.00
2023-05-18T17:42:03.309Z,13.80
2023-05-18T17:44:30.274Z,13.70
2023-05-18T17:46:57.985Z,13.70
2023-05-18T17:49:24.968Z,13.70
2023-05-18T17:51:52.382Z,13.60
2023-05-18T17:54:19.255Z,13.60
2023-05-18T17:56:46.582Z,13.60
2023-05-18T17:59:13.616Z,13.70
2023-05-18T18:01:40.871Z,13.70
2023-05-18T18:04:07.786Z,13.60
2023-05-18T18:06:35.691Z,13.50
2023-05-18T18:09:04.646Z,13.50
2023-05-18T18:11:31.700Z,13.50
2023-05-18T18:13:58.658Z,13.50
2023-05-18T18:16:25.689Z,13.40
2023-05-18T18:18:52.759Z,13.30
2023-05-18T18:21:19.711Z,13.40
2023-05-18T18:23:46.621Z,13.40
2023-05-18T18:26:13.488Z,13.30
2023-05-18T18:28:40.466Z,13.10
2023-05-18T18:31:08.233Z,13.00
2023-05-18T18:33:35.392Z,13.00
2023-05-18T18:36:04.366Z,13.10
2023-05-18T18:38:33.799Z,13.00
2023-05-18T18:41:04.102Z,13.00
2023-05-18T18:43:31.390Z,12.80
2023-05-18T18:45:59.151Z,12.90
2023-05-18T18:48:26.229Z,12.90
2023-05-18T18:50:53.717Z,13.00
2023-05-18T18:53:20.619Z,12.90
2023-05-18T18:55:47.563Z,12.80
2023-05-18T18:58:14.457Z,12.60
2023-05-18T19:00:41.496Z,12.60
2023-05-18T19:03:09.909Z,12.60
2023-05-18T19:05:37.413Z,12.60
2023-05-18T19:08:04.412Z,12.50
2023-05-18T19:10:32.857Z,12.50
2023-05-18T19:13:04.909Z,12.40
2023-05-18T19:15:33.870Z,12.50
2023-05-18T19:18:01.192Z,12.50
2023-05-18T19:20:28.382Z,12.50
2023-05-18T19:22:55.381Z,12.30
2023-05-18T19:25:24.521Z,12.30
2023-05-18T19:27:53.115Z,12.30
2023-05-18T19:30:21.576Z,12.30
2023-05-18T19:32:53.289Z,12.20
2023-05-18T19:35:21.799Z,12.20
2023-05-18T19:37:48.724Z,12.10
2023-05-18T19:40:16.702Z,12.00
2023-05-18T19:42:43.970Z,12.00
2023-05-18T19:45:10.862Z,12.00
2023-05-18T19:47:37.809Z,12.10
2023-05-18T19:50:06.159Z,12.00
2023-05-18T19:52:33.511Z,12.00
2023-05-18T19:55:00.556Z,12.00
2023-05-18T19:57:27.548Z,12.00
2023-05-18T19:59:54.441Z,12.00
2023-05-18T20:02:21.381Z,12.00
2023-05-18T20:04:48.445Z,11.90
2023-05-18T20:07:15.350Z,12.00
2023-05-18T20:09:42.216Z,11.90
2023-05-18T20:12:09.120Z,12.00
2023-05-18T20:14:36.717Z,11.80
2023-05-18T20:17:04.658Z,11.80
2023-05-18T20:19:32.440Z,11.70
2023-05-18T20:21:59.419Z,11.70
2023-05-18T20:24:26.290Z,11.70
2023-05-18T20:26:53.782Z,11.70
2023-05-18T20:29:20.669Z,11.70
2023-05-18T20:31:47.782Z,11.70
2023-05-18T20:34:14.783Z,11.70
2023-05-18T20:36:41.629Z,11.60
2023-05-18T20:39:08.988Z,11.60
2023-05-18T20:41:39.930Z,11.60
2023-05-18T20:44:10.548Z,11.60
2023-05-18T20:46:38.369Z,11.60
2023-05-18T20:49:05.568Z,11.60
2023-05-18T20:51:32.482Z,11.40
2023-05-18T20:53:59.332Z,11.60
2023-05-18T20:56:26.726Z,11.50
2023-05-18T20:58:54.467Z,11.60
2023-05-18T21:01:23.913Z,11.50
2023-05-18T21:03:50.902Z,11.50
2023-05-18T21:06:17.901Z,11.50
2023-05-18T21:08:45.634Z,11.40
2023-05-18T21:11:12.583Z,11.30
2023-05-18T21:13:39.526Z,11.20
2023-05-18T21:16:08.349Z,11.20
2023-05-18T21:18:35.964Z,11.20
2023-05-18T21:21:03.537Z,11.20
2023-05-18T21:23:30.807Z,11.00
2023-05-18T21:25:58.093Z,10.90
2023-05-18T21:28:25.040Z,10.90
2023-05-18T21:30:52.537Z,10.80
2023-05-18T21:33:19.811Z,10.70
2023-05-18T21:35:46.876Z,10.70
2023-05-18T21:38:13.886Z,10.70
2023-05-18T21:40:43.529Z,10.60
2023-05-18T21:43:10.968Z,10.70
2023-05-18T21:45:38.605Z,10.70
2023-05-18T21:48:06.216Z,10.70
2023-05-18T21:50:34.899Z,10.80
2023-05-18T21:53:05.682Z,11.00
2023-05-18T21:55:32.940Z,10.90
2023-05-18T21:58:00.159Z,10.90
2023-05-18T22:00:27.232Z,10.80
2023-05-18T22:02:54.462Z,10.80
2023-05-18T22:05:21.490Z,10.80
2023-05-18T22:07:49.171Z,10.80
2023-05-18T22:10:18.001Z,10.80
2023-05-18T22:12:45.175Z,10.80
2023-05-18T22:15:12.499Z,10.80
2023-05-18T22:17:39.488Z,10.70
2023-05-18T22:20:09.391Z,10.70
2023-05-18T22:22:36.377Z,10.80
2023-05-18T22:25:03.486Z,10.80
2023-05-18T22:27:30.465Z,10.70
2023-05-18T22:29:57.492Z,10.70
2023-05-18T22:32:24.802Z,10.60
2023-05-18T22:34:52.063Z,10.50
2023-05-18T22:37:18.977Z,10.40
2023-05-18T22:39:46.033Z,10.30
2023-05-18T22:42:12.887Z,10.20
2023-05-18T22:44:39.771Z,10.20
2023-05-18T22:47:06.815Z,10.10
2023-05-18T22:49:35.846Z,10.10
2023-05-18T22:52:06.520Z,10.00
2023-05-18T22:54:33.510Z,9.90
2023-05-18T22:57:00.402Z,9.90
2023-05-18T22:59:28.681Z,9.80
2023-05-18T23:01:55.742Z,9.80
2023-05-18T23:04:22.703Z,9.70
2023-05-18T23:06:50.788Z,9.60
2023-05-18T23:09:18.715Z,9.50
2023-05-18T23:11:46.341Z,9.50
2023-05-18T23:14:14.175Z,9.40
2023-05-18T23:16:43.070Z,9.40
2023-05-18T23:19:12.319Z,9.40
2023-05-18T23:21:42.649Z,9.30
2023-05-18T23:24:12.048Z,9.40
2023-05-18T23:26:42.766Z,9.40
2023-05-18T23:29:09.914Z,9.40
2023-05-18T23:31:37.623Z,9.40
2023-05-18T23:34:04.851Z,9.40
2023-05-18T23:36:35.489Z,9.40
2023-05-18T23:39:03.612Z,9.50
2023-05-18T23:41:31.938Z,9.50
2023-05-18T23:43:59.601Z,9.60
2023-05-18T23:46:26.852Z,9.60
2023-05-18T23:48:54.121Z,9.60
2023-05-18T23:51:21.599Z,9.60
2023-05-18T23:53:50.730Z,9.60
2023-05-18T23:56:18.395Z,9.60
2023-05-18T23:58:46.933Z,9.60
